Time;durP1;ratioP1;P1;durP2;ratioP2;P2;SDS_P1;SDS_P2;PMS_P1;PMS_P2;Temp;Humidity;BMP_temperature;BMP_pressure;BME280_temperature;BME280_humidity;BME280_pressure;Samples;Min_cycle;Max_cycle;Signal;HPM_P1;HPM_P2
2023/01/22 00:01:16;;;;;;;20.63;15.00;;;0.20;99.90;;;;;;5091884;28;20260;-82
2023/01/22 00:03:44;;;;;;;23.33;16.10;;;0.20;99.90;;;;;;5091712;28;20207;-82
2023/01/22 00:06:11;;;;;;;21.70;15.30;;;0.20;99.90;;;;;;5093554;28;20201;-88
2023/01/22 00:08:38;;;;;;;21.53;13.97;;;0.20;99.90;;;;;;5092806;28;20208;-87
2023/01/22 00:11:07;;;;;;;19.47;13.93;;;0.20;99.90;;;;;;5093490;28;20590;-88
2023/01/22 00:13:35;;;;;;;20.37;12.90;;;0.20;99.90;;;;;;5095693;28;20216;-87
2023/01/22 00:16:02;;;;;;;26.03;17.47;;;0.10;99.90;;;;;;5096968;28;20307;-80
2023/01/22 00:18:29;;;;;;;24.73;15.80;;;0.10;99.90;;;;;;5096776;28;20231;-86
2023/01/22 00:20:56;;;;;;;24.93;16.33;;;0.10;99.90;;;;;;5081475;28;20233;-87
2023/01/22 00:23:24;;;;;;;23.83;15.53;;;0.20;99.90;;;;;;5094000;28;20287;-85
2023/01/22 00:25:59;;;;;;;24.73;16.43;;;0.20;99.90;;;;;;5096243;28;20195;-87
2023/01/22 00:28:27;;;;;;;22.57;15.80;;;0.20;99.90;;;;;;5081135;28;20220;-84
2023/01/22 00:30:57;;;;;;;22.37;15.43;;;0.20;99.90;;;;;;5096161;28;20534;-87
2023/01/22 00:33:24;;;;;;;22.37;15.90;;;0.20;99.90;;;;;;5096226;28;20208;-81
2023/01/22 00:35:51;;;;;;;21.03;14.30;;;0.20;99.90;;;;;;5095904;28;20585;-85
2023/01/22 00:38:18;;;;;;;20.67;14.57;;;0.30;99.90;;;;;;5095863;28;20339;-82
2023/01/22 00:40:45;;;;;;;19.63;14.07;;;0.30;99.90;;;;;;5095633;28;20280;-84
2023/01/22 00:43:12;;;;;;;18.47;14.27;;;0.30;99.90;;;;;;5095239;28;20204;-85
2023/01/22 00:45:40;;;;;;;20.70;13.60;;;0.30;99.90;;;;;;5095843;28;20224;-82
2023/01/22 00:48:07;;;;;;;20.47;13.57;;;0.30;99.90;;;;;;5095456;28;20246;-83
2023/01/22 00:50:34;;;;;;;20.57;14.13;;;0.30;99.90;;;;;;5095076;28;20303;-86
2023/01/22 00:53:02;;;;;;;18.17;12.50;;;0.40;99.90;;;;;;5095323;28;20220;-80
2023/01/22 00:55:29;;;;;;;14.13;11.00;;;0.40;99.90;;;;;;5095274;28;20213;-81
2023/01/22 00:57:56;;;;;;;17.33;11.47;;;0.40;99.90;;;;;;5094497;28;20301;-82
2023/01/22 01:00:23;;;;;;;15.90;11.67;;;0.40;99.90;;;;;;5093985;28;20296;-81
2023/01/22 01:05:36;;;;;;;15.07;11.47;;;0.40;99.90;;;;;;5094470;28;20619;-81
2023/01/22 01:08:03;;;;;;;23.37;12.63;;;0.40;99.90;;;;;;5094191;28;20559;-84
2023/01/22 01:10:29;;;;;;;19.20;12.23;;;0.40;99.90;;;;;;5093551;28;20610;-83
2023/01/22 01:12:56;;;;;;;16.97;12.43;;;0.40;99.90;;;;;;5094940;28;20258;-81
2023/01/22 01:15:23;;;;;;;17.87;12.17;;;0.50;99.90;;;;;;5094512;28;20279;-82
2023/01/22 01:17:52;;;;;;;15.53;11.80;;;0.50;99.90;;;;;;5094211;28;20339;-82
2023/01/22 01:20:19;;;;;;;20.97;13.47;;;0.50;99.90;;;;;;5093067;28;20215;-80
2023/01/22 01:22:45;;;;;;;16.43;11.43;;;0.60;99.90;;;;;;5094411;28;20280;-83
2023/01/22 01:25:12;;;;;;;16.90;11.53;;;0.60;99.90;;;;;;5093555;28;20246;-83
2023/01/22 01:27:39;;;;;;;18.77;12.30;;;0.70;99.90;;;;;;5093991;28;20485;-83
2023/01/22 01:30:07;;;;;;;16.50;11.77;;;0.70;99.90;;;;;;5094050;28;20634;-82
2023/01/22 01:32:34;;;;;;;15.30;11.33;;;0.70;99.90;;;;;;5093900;28;20612;-81
2023/01/22 01:35:03;;;;;;;15.70;11.30;;;0.80;99.90;;;;;;5094349;28;20196;-82
2023/01/22 01:37:29;;;;;;;18.47;12.77;;;0.80;99.90;;;;;;5093150;28;20324;-83
2023/01/22 01:39:56;;;;;;;16.70;11.87;;;0.90;99.90;;;;;;5093449;28;20287;-84
2023/01/22 01:42:30;;;;;;;17.53;11.93;;;0.90;99.90;;;;;;5095146;28;20204;-85
2023/01/22 01:45:20;;;;;;;15.57;11.97;;;1.00;99.90;;;;;;5094926;28;20191;-87
2023/01/22 01:47:50;;;;;;;18.37;11.17;;;1.10;99.90;;;;;;5074827;28;20199;-89
2023/01/22 01:50:20;;;;;;;14.60;11.33;;;1.10;99.90;;;;;;5083062;28;20211;-87
2023/01/22 01:52:47;;;;;;;16.17;11.63;;;1.20;99.90;;;;;;5093415;28;20253;-87
2023/01/22 01:55:16;;;;;;;15.10;11.20;;;1.20;99.90;;;;;;5093261;28;20279;-83
2023/01/22 01:57:44;;;;;;;14.90;12.23;;;1.20;99.90;;;;;;5093684;28;20216;-82
2023/01/22 02:00:14;;;;;;;14.73;11.47;;;1.20;99.90;;;;;;5093472;28;20279;-82
2023/01/22 02:02:41;;;;;;;13.50;11.13;;;1.30;99.90;;;;;;5093516;28;20252;-81
2023/01/22 02:05:09;;;;;;;16.70;10.90;;;1.30;99.90;;;;;;5094556;28;20199;-81
2023/01/22 02:07:38;;;;;;;13.80;11.07;;;1.30;99.90;;;;;;5093022;28;20286;-81
2023/01/22 02:10:06;;;;;;;14.73;10.37;;;1.30;99.90;;;;;;5093346;28;20236;-82
2023/01/22 02:12:33;;;;;;;13.03;9.90;;;1.40;99.90;;;;;;5093568;28;20196;-80
2023/01/22 02:15:03;;;;;;;16.90;11.17;;;1.50;99.90;;;;;;5092562;28;20197;-81
2023/01/22 02:17:30;;;;;;;12.73;9.83;;;1.50;99.90;;;;;;5092646;28;20312;-82
2023/01/22 02:19:57;;;;;;;13.80;11.13;;;1.50;99.90;;;;;;5092963;28;20201;-81
2023/01/22 02:22:28;;;;;;;13.23;10.60;;;1.50;99.90;;;;;;5092951;28;20287;-83
2023/01/22 02:24:55;;;;;;;18.97;10.17;;;1.50;99.90;;;;;;5093235;28;20203;-83
2023/01/22 02:27:22;;;;;;;13.00;10.33;;;1.70;99.90;;;;;;5091946;28;20239;-80
2023/01/22 02:29:49;;;;;;;13.70;10.17;;;1.60;99.90;;;;;;5075179;28;20236;-84
2023/01/22 02:32:16;;;;;;;15.60;10.03;;;1.60;99.90;;;;;;5092804;28;20196;-83
2023/01/22 02:34:43;;;;;;;12.93;9.67;;;1.60;99.90;;;;;;5092390;28;20228;-81
2023/01/22 02:37:11;;;;;;;12.60;10.30;;;1.60;99.90;;;;;;5092018;28;20307;-82
2023/01/22 02:39:39;;;;;;;13.13;10.33;;;1.60;99.90;;;;;;5092200;28;20202;-84
2023/01/22 02:42:06;;;;;;;12.20;9.93;;;1.60;99.90;;;;;;5089847;28;20648;-82
2023/01/22 02:44:33;;;;;;;11.90;9.17;;;1.60;99.90;;;;;;5093926;28;20211;-87
2023/01/22 02:47:00;;;;;;;10.90;9.40;;;1.60;99.90;;;;;;5094790;28;20592;-87
2023/01/22 02:49:27;;;;;;;10.93;8.10;;;1.50;99.90;;;;;;5093652;28;20531;-86
2023/01/22 02:51:54;;;;;;;9.33;7.87;;;1.50;99.90;;;;;;5094709;28;20582;-86
2023/01/22 02:54:21;;;;;;;12.07;9.17;;;1.50;99.90;;;;;;5093198;28;20280;-87
2023/01/22 02:56:49;;;;;;;11.73;8.83;;;1.50;99.90;;;;;;5093941;28;20287;-86
2023/01/22 02:59:16;;;;;;;10.43;8.73;;;1.50;99.90;;;;;;5093830;28;20232;-86
2023/01/22 03:01:43;;;;;;;10.73;8.33;;;1.50;99.90;;;;;;5094521;28;20232;-86
2023/01/22 03:04:10;;;;;;;10.33;8.53;;;1.40;99.90;;;;;;5093742;28;20746;-86
2023/01/22 03:06:39;;;;;;;11.67;8.80;;;1.40;99.90;;;;;;5093101;28;20205;-87
2023/01/22 03:09:06;;;;;;;9.67;7.77;;;1.40;99.90;;;;;;5094113;28;20200;-86
2023/01/22 03:11:34;;;;;;;11.07;7.17;;;1.40;99.90;;;;;;5094162;28;20235;-86
2023/01/22 03:22:17;;;;;;;10.63;7.60;;;1.30;99.90;;;;;;5093482;28;20198;-86
2023/01/22 03:24:49;;;;;;;11.73;8.90;;;1.30;99.90;;;;;;5093706;28;20214;-84
2023/01/22 03:27:16;;;;;;;12.43;9.00;;;1.40;99.90;;;;;;5093930;28;20522;-87
2023/01/22 03:29:45;;;;;;;11.17;9.10;;;1.40;99.90;;;;;;5089101;28;20284;-86
2023/01/22 03:32:13;;;;;;;12.17;9.67;;;1.40;99.90;;;;;;5073539;28;20581;-87
2023/01/22 03:34:40;;;;;;;11.43;9.40;;;1.40;99.90;;;;;;5083845;28;20532;-86
2023/01/22 03:37:07;;;;;;;10.67;8.57;;;1.50;99.90;;;;;;5094007;28;20279;-87
2023/01/22 03:39:34;;;;;;;11.43;8.73;;;1.50;99.90;;;;;;5093770;28;20311;-86
2023/01/22 03:42:02;;;;;;;12.20;9.10;;;1.50;99.90;;;;;;5093890;28;20189;-86
2023/01/22 03:44:28;;;;;;;10.40;8.40;;;1.50;99.90;;;;;;5093583;28;20196;-87
2023/01/22 03:46:57;;;;;;;10.93;8.63;;;1.60;99.90;;;;;;5093950;28;20287;-87
2023/01/22 03:49:24;;;;;;;12.40;9.57;;;1.60;99.90;;;;;;5097638;28;20224;-87
2023/01/22 03:51:51;;;;;;;10.83;8.80;;;1.60;99.90;;;;;;5096321;28;20622;-88
2023/01/22 03:54:17;;;;;;;10.83;8.30;;;1.60;99.90;;;;;;5097762;28;20227;-86
2023/01/22 03:56:44;;;;;;;12.53;9.47;;;1.60;99.90;;;;;;5097570;28;20203;-86
2023/01/22 03:59:12;;;;;;;12.27;9.07;;;1.60;99.90;;;;;;5096013;28;20284;-85
2023/01/22 04:01:38;;;;;;;10.13;8.20;;;1.70;99.90;;;;;;5077151;28;20243;-86
2023/01/22 04:04:07;;;;;;;11.63;8.20;;;1.80;99.90;;;;;;5077131;28;20284;-87
2023/01/22 04:06:34;;;;;;;10.60;8.33;;;1.80;99.90;;;;;;5076729;28;20296;-86
2023/01/22 04:09:01;;;;;;;11.63;9.10;;;1.80;99.90;;;;;;5087119;28;20196;-85
2023/01/22 04:11:28;;;;;;;12.17;9.37;;;1.80;99.90;;;;;;5096786;28;20228;-83
2023/01/22 04:13:55;;;;;;;9.80;8.10;;;1.80;99.90;;;;;;5096483;28;20691;-87
2023/01/22 04:16:22;;;;;;;11.87;8.93;;;1.80;99.90;;;;;;5096534;28;20208;-86
2023/01/22 04:18:49;;;;;;;10.70;8.33;;;1.80;99.90;;;;;;5096692;28;20311;-85
2023/01/22 04:21:17;;;;;;;10.73;8.70;;;1.90;99.90;;;;;;5095920;28;20280;-82
2023/01/22 04:23:44;;;;;;;9.83;8.23;;;1.90;99.90;;;;;;5095768;28;20660;-86
2023/01/22 04:26:11;;;;;;;10.20;7.87;;;1.90;99.90;;;;;;5094976;28;20764;-86
2023/01/22 04:28:39;;;;;;;10.77;7.93;;;2.00;99.90;;;;;;5094875;28;20207;-83
2023/01/22 04:31:07;;;;;;;9.43;7.50;;;2.00;99.90;;;;;;5094540;28;20283;-83
2023/01/22 04:33:34;;;;;;;10.07;7.50;;;2.10;99.90;;;;;;5095119;28;20202;-84
2023/01/22 04:36:01;;;;;;;11.73;8.57;;;2.00;99.90;;;;;;5094745;28;20204;-82
2023/01/22 04:38:30;;;;;;;9.37;7.87;;;2.00;99.90;;;;;;5095594;28;20719;-86
2023/01/22 04:40:57;;;;;;;10.03;8.17;;;2.00;99.90;;;;;;5096308;28;20239;-86
2023/01/22 04:43:23;;;;;;;9.17;7.37;;;2.00;99.90;;;;;;5095242;28;20200;-84
2023/01/22 04:45:51;;;;;;;9.60;7.53;;;2.00;99.90;;;;;;5096227;28;20197;-84
2023/01/22 04:48:17;;;;;;;10.77;8.00;;;2.00;99.90;;;;;;5096338;28;20212;-87
2023/01/22 04:50:44;;;;;;;11.10;8.23;;;2.00;99.90;;;;;;5096951;28;20193;-87
2023/01/22 04:53:11;;;;;;;9.57;7.03;;;2.00;99.90;;;;;;5096272;28;20207;-86
2023/01/22 04:55:40;;;;;;;10.07;7.83;;;2.00;99.90;;;;;;5096426;28;20648;-87
2023/01/22 04:58:08;;;;;;;8.50;7.03;;;2.00;99.90;;;;;;5095736;28;20225;-86
2023/01/22 05:00:35;;;;;;;9.07;6.93;;;2.00;99.90;;;;;;5095751;28;20288;-86
2023/01/22 05:03:03;;;;;;;9.03;7.87;;;1.90;99.90;;;;;;5096209;28;20292;-82
2023/01/22 05:05:31;;;;;;;9.53;7.37;;;1.90;99.90;;;;;;5095374;28;20576;-87
2023/01/22 05:07:59;;;;;;;8.70;6.93;;;1.80;99.90;;;;;;5096168;28;20196;-85
2023/01/22 05:10:26;;;;;;;9.70;6.77;;;1.80;99.90;;;;;;5095589;28;20201;-88
2023/01/22 05:12:56;;;;;;;11.03;7.40;;;1.80;99.90;;;;;;5095601;28;20227;-86
2023/01/22 05:15:23;;;;;;;10.97;8.07;;;1.70;99.90;;;;;;5096197;28;20193;-88
2023/01/22 05:17:49;;;;;;;9.93;7.47;;;1.70;99.90;;;;;;5095200;28;20212;-89
2023/01/22 05:20:17;;;;;;;8.80;7.33;;;1.60;99.90;;;;;;5096363;28;20299;-82
2023/01/22 05:22:45;;;;;;;11.67;7.80;;;1.60;99.90;;;;;;5095471;28;20209;-84
2023/01/22 05:25:12;;;;;;;9.40;7.87;;;1.60;99.90;;;;;;5096041;28;20224;-87
2023/01/22 05:27:39;;;;;;;10.90;7.70;;;1.60;99.90;;;;;;5095839;28;20236;-85
2023/01/22 05:30:08;;;;;;;10.37;7.57;;;1.50;99.90;;;;;;5094994;28;20609;-88
2023/01/22 05:32:36;;;;;;;10.00;7.90;;;1.50;99.90;;;;;;5095684;28;20229;-86
2023/01/22 05:35:03;;;;;;;8.83;7.33;;;1.50;99.90;;;;;;5095700;28;20223;-86
2023/01/22 05:37:31;;;;;;;9.23;6.60;;;1.40;99.90;;;;;;5095426;28;20277;-87
2023/01/22 05:39:58;;;;;;;8.47;6.63;;;1.40;99.90;;;;;;5095065;28;20294;-88
2023/01/22 05:42:25;;;;;;;9.63;6.97;;;1.30;99.90;;;;;;5095444;28;20287;-87
2023/01/22 05:44:52;;;;;;;9.23;7.33;;;1.30;99.90;;;;;;5095444;28;20304;-87
2023/01/22 05:47:20;;;;;;;10.00;6.83;;;1.30;99.90;;;;;;5095370;28;20566;-87
2023/01/22 05:49:47;;;;;;;7.30;6.43;;;1.20;99.90;;;;;;5094572;28;20585;-87
2023/01/22 05:52:14;;;;;;;8.63;7.10;;;1.20;99.90;;;;;;5094547;28;20200;-87
2023/01/22 05:54:41;;;;;;;7.47;6.07;;;1.10;99.90;;;;;;5094365;28;20905;-85
2023/01/22 05:57:08;;;;;;;11.63;6.73;;;1.10;99.90;;;;;;5095053;28;20288;-88
2023/01/22 05:59:35;;;;;;;11.10;6.97;;;1.00;99.90;;;;;;5094459;28;20529;-87
2023/01/22 06:02:02;;;;;;;7.87;6.70;;;1.00;99.90;;;;;;5094856;28;20513;-87
2023/01/22 06:04:31;;;;;;;9.67;6.70;;;1.00;99.90;;;;;;5079111;28;20780;-85
2023/01/22 06:06:58;;;;;;;10.47;6.73;;;0.90;99.90;;;;;;5073649;28;20276;-87
2023/01/22 06:09:25;;;;;;;8.93;6.33;;;0.90;99.90;;;;;;5073856;28;20236;-85
2023/01/22 06:11:52;;;;;;;7.87;6.33;;;0.80;99.90;;;;;;5088239;28;20775;-84
2023/01/22 06:14:19;;;;;;;7.63;6.47;;;0.80;99.90;;;;;;5094966;28;20224;-87
2023/01/22 06:16:46;;;;;;;7.50;6.13;;;0.80;99.90;;;;;;5094998;28;20200;-86
2023/01/22 06:19:12;;;;;;;5.80;5.20;;;0.80;99.90;;;;;;5094536;28;20743;-87
2023/01/22 06:21:42;;;;;;;8.53;6.47;;;0.70;99.90;;;;;;5095061;28;20667;-89
2023/01/22 06:24:09;;;;;;;8.67;6.37;;;0.70;99.90;;;;;;5095065;28;20207;-87
2023/01/22 06:26:36;;;;;;;8.40;6.33;;;0.70;99.90;;;;;;5094624;28;20196;-87
2023/01/22 06:29:03;;;;;;;8.63;6.40;;;0.70;99.90;;;;;;5094761;28;20283;-87
2023/01/22 06:31:31;;;;;;;7.60;6.80;;;0.70;99.90;;;;;;5094898;28;20243;-81
2023/01/22 06:33:58;;;;;;;8.80;6.37;;;0.70;99.90;;;;;;5092825;28;20262;-82
2023/01/22 06:36:25;;;;;;;8.20;6.97;;;0.70;99.90;;;;;;5093395;28;20596;-82
2023/01/22 06:38:53;;;;;;;11.33;7.63;;;0.70;99.90;;;;;;5092559;28;20812;-81
2023/01/22 06:41:20;;;;;;;7.97;6.77;;;0.70;99.90;;;;;;5092611;28;20199;-86
2023/01/22 06:43:47;;;;;;;9.73;6.97;;;0.80;99.90;;;;;;5092400;28;20284;-81
2023/01/22 06:46:14;;;;;;;9.10;7.30;;;0.80;99.90;;;;;;5092283;28;20196;-82
2023/01/22 06:48:42;;;;;;;8.60;7.33;;;0.90;99.90;;;;;;5092604;28;20207;-83
2023/01/22 06:51:09;;;;;;;11.43;8.10;;;0.90;99.90;;;;;;5084157;28;20619;-84
2023/01/22 06:53:36;;;;;;;13.23;7.80;;;1.00;99.90;;;;;;5076402;28;20278;-81
2023/01/22 06:56:06;;;;;;;9.30;6.73;;;1.00;99.90;;;;;;5092197;28;20219;-81
2023/01/22 06:58:33;;;;;;;10.73;7.63;;;1.20;99.90;;;;;;5092644;28;20308;-82
2023/01/22 07:01:00;;;;;;;10.63;7.50;;;1.20;99.90;;;;;;5091990;28;20260;-81
2023/01/22 07:03:27;;;;;;;12.40;7.50;;;1.30;99.90;;;;;;5092169;28;20200;-83
2023/01/22 07:06:00;;;;;;;11.23;7.47;;;1.30;99.90;;;;;;5091919;28;20196;-83
2023/01/22 07:08:28;;;;;;;11.37;7.77;;;1.40;99.90;;;;;;5091984;28;20265;-81
2023/01/22 07:10:55;;;;;;;9.93;6.97;;;1.40;99.90;;;;;;5092033;28;20287;-82
2023/01/22 07:13:23;;;;;;;10.80;7.03;;;1.50;99.90;;;;;;5092738;28;20292;-86
2023/01/22 07:15:50;;;;;;;14.27;8.73;;;1.60;99.90;;;;;;5091354;28;20208;-80
2023/01/22 07:18:19;;;;;;;8.60;7.00;;;1.60;99.90;;;;;;5092714;28;20300;-80
2023/01/22 07:20:47;;;;;;;13.07;6.37;;;1.70;99.90;;;;;;5092853;28;20451;-82
2023/01/22 07:23:14;;;;;;;7.97;6.17;;;1.70;99.90;;;;;;5094485;28;20184;-80
2023/01/22 07:25:40;;;;;;;8.40;6.40;;;1.70;99.90;;;;;;5085312;28;20215;-80
2023/01/22 07:28:08;;;;;;;9.10;7.10;;;1.70;99.90;;;;;;5081784;28;20219;-81
2023/01/22 07:30:37;;;;;;;10.07;6.50;;;1.70;99.90;;;;;;5075383;28;20283;-81
2023/01/22 07:33:04;;;;;;;12.37;6.60;;;1.80;99.90;;;;;;5092769;28;20287;-83
2023/01/22 07:35:31;;;;;;;8.70;6.50;;;1.80;99.90;;;;;;5097289;28;20193;-83
2023/01/22 07:38:00;;;;;;;8.10;6.67;;;1.80;99.90;;;;;;5096305;28;20211;-83
2023/01/22 07:40:27;;;;;;;9.37;6.07;;;1.80;99.90;;;;;;5095371;28;20220;-81
2023/01/22 07:42:55;;;;;;;7.43;5.83;;;1.80;99.90;;;;;;5096193;28;20203;-81
2023/01/22 07:45:23;;;;;;;6.97;5.90;;;1.80;99.90;;;;;;5095992;28;20230;-81
2023/01/22 07:47:55;;;;;;;9.97;5.77;;;1.80;99.90;;;;;;5096064;28;20196;-79
2023/01/22 07:50:24;;;;;;;9.87;5.17;;;1.90;99.90;;;;;;5095750;28;20207;-80
2023/01/22 07:52:51;;;;;;;8.10;5.77;;;1.90;99.90;;;;;;5095561;28;20197;-81
2023/01/22 07:55:18;;;;;;;9.77;5.73;;;2.00;99.90;;;;;;5095688;28;20255;-81
2023/01/22 07:57:45;;;;;;;10.60;6.83;;;2.00;99.90;;;;;;5094180;28;20211;-81
2023/01/22 08:00:14;;;;;;;7.57;5.47;;;2.00;99.90;;;;;;5095761;28;20224;-81
2023/01/22 08:02:42;;;;;;;7.20;5.70;;;2.00;99.90;;;;;;5095328;28;20228;-80
2023/01/22 08:05:13;;;;;;;6.97;5.37;;;2.10;99.90;;;;;;5095030;28;20188;-85
2023/01/22 08:07:40;;;;;;;8.67;5.07;;;2.10;99.90;;;;;;5095462;28;20316;-81
2023/01/22 08:10:08;;;;;;;7.00;5.20;;;2.10;99.90;;;;;;5045982;28;20451;-81
2023/01/22 08:12:40;;;;;;;5.30;4.63;;;2.10;99.90;;;;;;5094458;28;20239;-82
2023/01/22 08:15:07;;;;;;;10.67;5.20;;;2.20;99.90;;;;;;5080873;28;20901;-84
2023/01/22 08:17:35;;;;;;;6.67;5.37;;;2.20;99.90;;;;;;5081250;28;20573;-82
2023/01/22 08:20:02;;;;;;;9.37;4.93;;;2.20;99.90;;;;;;5078095;28;20231;-80
2023/01/22 08:22:30;;;;;;;7.77;4.87;;;2.20;99.90;;;;;;5077692;28;20319;-82
2023/01/22 08:24:57;;;;;;;6.20;4.63;;;2.30;99.90;;;;;;5082523;28;20296;-80
2023/01/22 08:27:24;;;;;;;6.67;4.43;;;2.30;99.90;;;;;;5085395;28;21044;-81
2023/01/22 08:29:51;;;;;;;6.23;4.90;;;2.30;99.90;;;;;;5094961;28;20283;-81
2023/01/22 08:32:19;;;;;;;7.90;4.90;;;2.40;99.90;;;;;;5095496;28;20235;-81
2023/01/22 08:34:46;;;;;;;6.40;4.70;;;2.40;99.90;;;;;;5094645;28;20201;-82
2023/01/22 08:37:13;;;;;;;6.00;5.10;;;2.30;99.90;;;;;;5095975;28;20397;-82
2023/01/22 08:39:41;;;;;;;6.80;5.27;;;2.30;99.90;;;;;;5095426;28;20316;-81
2023/01/22 08:42:08;;;;;;;6.40;4.47;;;2.30;99.90;;;;;;5095418;28;20283;-83
2023/01/22 08:44:35;;;;;;;8.60;5.43;;;2.30;99.90;;;;;;5095481;28;20275;-82
2023/01/22 08:47:02;;;;;;;9.17;5.87;;;2.30;99.90;;;;;;5094573;28;20223;-82
2023/01/22 08:49:30;;;;;;;7.67;4.90;;;2.30;99.90;;;;;;5094580;28;20283;-83
2023/01/22 08:51:57;;;;;;;10.17;6.33;;;2.30;99.90;;;;;;5093981;28;20216;-82
2023/01/22 08:54:25;;;;;;;8.57;5.37;;;2.30;99.90;;;;;;5093813;28;20312;-82
2023/01/22 08:56:53;;;;;;;10.30;5.30;;;2.30;99.90;;;;;;5093832;28;20197;-80
2023/01/22 08:59:20;;;;;;;5.50;4.70;;;2.30;99.90;;;;;;5094631;28;20274;-82
2023/01/22 09:01:47;;;;;;;7.07;4.87;;;2.30;99.90;;;;;;5094279;28;20639;-81
2023/01/22 09:04:14;;;;;;;9.43;5.27;;;2.30;99.90;;;;;;5094852;28;20200;-81
2023/01/22 09:06:41;;;;;;;6.73;4.73;;;2.30;99.90;;;;;;5093720;28;20201;-81
2023/01/22 09:09:08;;;;;;;7.13;4.67;;;2.40;99.90;;;;;;5094323;28;20193;-83
2023/01/22 09:11:35;;;;;;;6.50;4.90;;;2.40;99.90;;;;;;5094950;28;20196;-82
2023/01/22 09:14:07;;;;;;;6.90;5.33;;;2.40;99.90;;;;;;5094343;28;20207;-79
2023/01/22 09:16:34;;;;;;;12.13;6.57;;;2.50;99.90;;;;;;5092150;28;20205;-82
2023/01/22 09:19:00;;;;;;;6.97;4.70;;;2.40;99.90;;;;;;5093452;28;20200;-81
2023/01/22 09:21:27;;;;;;;10.60;6.63;;;2.50;99.90;;;;;;5093939;28;20307;-82
2023/01/22 09:23:54;;;;;;;7.37;6.17;;;2.50;99.90;;;;;;5093918;28;20299;-81
2023/01/22 09:26:21;;;;;;;7.10;5.50;;;2.50;99.90;;;;;;5094873;28;20226;-83
2023/01/22 09:28:48;;;;;;;6.37;4.63;;;2.50;99.90;;;;;;5094446;28;20227;-82
2023/01/22 09:31:17;;;;;;;8.13;5.30;;;2.50;99.90;;;;;;5093298;28;20250;-79
2023/01/22 09:33:43;;;;;;;10.47;5.23;;;2.50;99.90;;;;;;5093313;28;20209;-82
2023/01/22 09:36:12;;;;;;;8.70;4.97;;;2.50;99.90;;;;;;5093443;28;20260;-81
2023/01/22 09:38:40;;;;;;;8.13;5.17;;;2.50;99.90;;;;;;5093588;28;20297;-81
2023/01/22 09:41:15;;;;;;;9.67;4.70;;;2.50;99.90;;;;;;5093475;28;20251;-80
2023/01/22 09:43:49;;;;;;;9.70;5.30;;;2.50;99.90;;;;;;5093064;28;20212;-80
2023/01/22 09:46:22;;;;;;;8.30;5.30;;;2.50;99.90;;;;;;5094020;28;20193;-82
2023/01/22 09:48:55;;;;;;;7.40;5.10;;;2.50;99.90;;;;;;5090832;28;20204;-81
2023/01/22 09:51:23;;;;;;;6.47;4.90;;;2.50;99.90;;;;;;5082906;28;20216;-81
2023/01/22 09:53:55;;;;;;;6.63;5.03;;;2.50;99.90;;;;;;5091692;28;20207;-79
2023/01/22 09:56:31;;;;;;;7.27;5.70;;;2.50;99.90;;;;;;5075125;28;20659;-81
2023/01/22 09:58:59;;;;;;;12.00;5.50;;;2.50;99.90;;;;;;5090762;28;20604;-81
2023/01/22 10:01:28;;;;;;;9.63;6.30;;;2.50;99.90;;;;;;5073309;28;20232;-82
2023/01/22 10:04:02;;;;;;;6.97;5.40;;;2.50;99.90;;;;;;5080742;28;20199;-82
2023/01/22 10:06:30;;;;;;;8.20;5.10;;;2.50;99.90;;;;;;5080380;28;20205;-82
2023/01/22 10:09:06;;;;;;;5.83;4.63;;;2.50;99.90;;;;;;5080447;28;20259;-82
2023/01/22 10:11:32;;;;;;;9.30;4.80;;;2.60;99.90;;;;;;5076869;28;20227;-80
2023/01/22 10:14:01;;;;;;;5.40;4.90;;;2.60;99.90;;;;;;5081609;28;20532;-81
2023/01/22 10:16:29;;;;;;;7.30;5.57;;;2.60;99.90;;;;;;5079179;28;20806;-80
2023/01/22 10:19:04;;;;;;;8.73;5.27;;;2.70;99.90;;;;;;5089668;28;20517;-81
2023/01/22 10:21:35;;;;;;;9.13;6.60;;;2.60;99.90;;;;;;5082334;28;20220;-81
2023/01/22 10:24:02;;;;;;;6.70;5.37;;;2.60;99.90;;;;;;5074660;28;20279;-80
2023/01/22 10:26:35;;;;;;;6.47;5.23;;;2.60;99.90;;;;;;5080925;28;20204;-80
2023/01/22 10:29:06;;;;;;;5.83;4.97;;;2.60;99.90;;;;;;5073641;28;20211;-81
2023/01/22 10:31:36;;;;;;;7.97;5.23;;;2.60;99.90;;;;;;5090985;28;20200;-81
2023/01/22 10:34:10;;;;;;;6.73;5.47;;;2.70;99.90;;;;;;5092177;28;20655;-82
2023/01/22 10:36:37;;;;;;;6.77;5.17;;;2.70;99.90;;;;;;5092138;28;20610;-81
2023/01/22 10:39:12;;;;;;;6.33;4.57;;;2.60;99.90;;;;;;5092046;28;20227;-81
2023/01/22 10:41:39;;;;;;;6.20;4.30;;;2.60;99.90;;;;;;5092606;28;20676;-80
2023/01/22 10:44:11;;;;;;;12.37;4.60;;;2.70;99.90;;;;;;5088886;28;20201;-80
2023/01/22 10:46:39;;;;;;;7.47;4.60;;;2.70;99.90;;;;;;5084101;28;20193;-80
2023/01/22 10:49:07;;;;;;;5.60;5.00;;;2.70;99.90;;;;;;5077796;28;20659;-80
2023/01/22 10:51:38;;;;;;;8.90;5.70;;;2.80;99.90;;;;;;5082607;28;20273;-79
2023/01/22 10:54:21;;;;;;;8.90;5.00;;;2.80;99.90;;;;;;5082803;28;20213;-80
2023/01/22 10:56:50;;;;;;;6.13;4.97;;;2.80;99.90;;;;;;5081183;28;20187;-80
2023/01/22 10:59:21;;;;;;;6.00;4.97;;;2.80;99.90;;;;;;5081430;28;20205;-79
2023/01/22 11:02:02;;;;;;;7.43;4.77;;;2.90;99.90;;;;;;5081039;28;20290;-80
2023/01/22 11:04:31;;;;;;;5.00;4.40;;;2.90;99.90;;;;;;5072308;28;20250;-80
2023/01/22 11:07:05;;;;;;;10.93;5.13;;;2.90;99.90;;;;;;5087819;28;20200;-80
2023/01/22 11:09:39;;;;;;;10.20;4.47;;;2.90;99.90;;;;;;5087389;28;20196;-82
2023/01/22 11:12:15;;;;;;;7.70;4.23;;;2.90;99.90;;;;;;5081153;28;20268;-82
2023/01/22 11:14:42;;;;;;;7.00;4.50;;;2.90;99.90;;;;;;5084111;28;20276;-80
2023/01/22 11:17:17;;;;;;;6.13;4.10;;;2.90;99.90;;;;;;5078357;28;20201;-81
2023/01/22 11:19:51;;;;;;;6.83;3.90;;;2.90;99.90;;;;;;5086017;28;20207;-81
2023/01/22 11:22:28;;;;;;;5.67;3.93;;;3.00;99.90;;;;;;5077269;28;20193;-80
2023/01/22 11:24:57;;;;;;;5.53;3.57;;;3.00;99.90;;;;;;5081986;28;20205;-81
2023/01/22 11:27:50;;;;;;;5.80;3.77;;;3.00;99.90;;;;;;5081676;28;20203;-81
2023/01/22 11:30:43;;;;;;;10.57;4.67;;;2.90;99.90;;;;;;5084996;28;20249;-81
2023/01/22 11:33:23;;;;;;;6.37;3.80;;;2.90;99.90;;;;;;5071542;28;20583;-80
2023/01/22 11:35:56;;;;;;;5.37;4.30;;;3.00;99.90;;;;;;5085210;28;20613;-81
2023/01/22 11:38:34;;;;;;;7.00;4.93;;;3.00;99.90;;;;;;5091624;28;20527;-80
2023/01/22 11:41:21;;;;;;;5.93;4.03;;;3.00;99.90;;;;;;5092216;28;20553;-81
2023/01/22 11:44:24;;;;;;;8.17;4.27;;;3.00;99.90;;;;;;5091458;28;20201;-81
2023/01/22 11:47:08;;;;;;;8.67;5.27;;;3.00;99.90;;;;;;5058788;28;20585;-81
2023/01/22 11:49:56;;;;;;;5.33;3.73;;;3.10;99.90;;;;;;5074977;28;20257;-79
2023/01/22 11:52:36;;;;;;;6.57;4.50;;;3.10;99.90;;;;;;5091565;28;20197;-81
2023/01/22 11:55:27;;;;;;;5.90;4.07;;;3.10;99.90;;;;;;5091317;28;20232;-81
2023/01/22 11:58:02;;;;;;;8.57;4.30;;;3.10;99.90;;;;;;5090953;28;20276;-81
2023/01/22 12:00:44;;;;;;;4.87;3.77;;;3.20;99.90;;;;;;5091493;28;20207;-80
2023/01/22 12:03:44;;;;;;;7.00;4.80;;;3.20;99.90;;;;;;5091267;28;20275;-79
2023/01/22 12:06:30;;;;;;;6.10;3.70;;;3.20;99.90;;;;;;5091526;28;20213;-80
2023/01/22 12:09:08;;;;;;;9.50;4.07;;;3.20;99.90;;;;;;5093160;28;20196;-79
2023/01/22 12:11:56;;;;;;;8.60;5.07;;;3.20;99.90;;;;;;5093737;28;20200;-80
2023/01/22 12:14:46;;;;;;;9.13;5.43;;;3.20;99.90;;;;;;5094876;28;20204;-80
2023/01/22 12:17:23;;;;;;;5.97;4.20;;;3.30;99.90;;;;;;5095128;28;20778;-79
2023/01/22 12:20:04;;;;;;;6.40;4.57;;;3.30;99.90;;;;;;5094953;28;20215;-81
2023/01/22 12:22:40;;;;;;;8.93;5.30;;;3.30;99.90;;;;;;5093959;28;20200;-85
2023/01/22 12:25:16;;;;;;;6.97;5.00;;;3.30;99.90;;;;;;5094399;28;20223;-81
2023/01/22 12:27:48;;;;;;;8.10;4.17;;;3.40;99.90;;;;;;5075245;28;20199;-80
2023/01/22 12:30:22;;;;;;;5.40;4.10;;;3.40;99.90;;;;;;5074900;28;20194;-81
2023/01/22 12:32:54;;;;;;;9.20;3.80;;;3.40;99.90;;;;;;5079803;28;20203;-82
2023/01/22 12:35:24;;;;;;;5.27;4.20;;;3.50;99.90;;;;;;5086420;28;20197;-81
2023/01/22 12:38:00;;;;;;;5.20;4.00;;;3.50;99.90;;;;;;5086044;28;20206;-81
2023/01/22 12:40:56;;;;;;;7.07;4.47;;;3.50;99.90;;;;;;5091841;28;20248;-79
2023/01/22 12:43:34;;;;;;;8.23;4.10;;;3.50;99.90;;;;;;5087845;28;20300;-81
2023/01/22 12:46:10;;;;;;;5.37;4.60;;;3.40;99.90;;;;;;5083160;28;20263;-80
2023/01/22 12:48:47;;;;;;;6.70;4.33;;;3.40;99.90;;;;;;5086467;28;20588;-80
2023/01/22 12:51:27;;;;;;;8.03;4.50;;;3.40;99.90;;;;;;5085992;28;20281;-82
2023/01/22 12:54:07;;;;;;;5.60;4.33;;;3.40;99.90;;;;;;5056082;22;20238;-81
2023/01/22 12:56:34;;;;;;;8.40;6.07;;;3.40;99.90;;;;;;5028494;28;20230;-81
2023/01/22 12:59:02;;;;;;;8.93;5.10;;;3.50;99.90;;;;;;5030516;28;20512;-80
2023/01/22 13:01:34;;;;;;;7.17;4.90;;;3.50;99.90;;;;;;5033590;28;20313;-80
2023/01/22 13:04:12;;;;;;;7.17;4.93;;;3.40;99.90;;;;;;5031646;28;20205;-80
2023/01/22 13:06:41;;;;;;;6.23;4.50;;;3.40;99.90;;;;;;5032922;28;20222;-81
2023/01/22 13:09:27;;;;;;;6.93;4.90;;;3.40;99.90;;;;;;5032305;28;20204;-80
2023/01/22 13:11:54;;;;;;;6.27;4.43;;;3.50;99.90;;;;;;5032555;28;20205;-83
2023/01/22 13:14:25;;;;;;;5.20;4.40;;;3.40;99.90;;;;;;5030331;28;20305;-81